Hauptseite
METAR-TAF:

METAR-TAF

Flughäfen :

Václav-Havel-Flughafen Prag

Prag, Tschechien

Breite: 50-06N, Länge: 014-15E, Höhe: 365 m

Beobachtung

Neuester Wetterbericht von vor 23 Minuten, um 19:00 UTC
Wind 3 kt aus Ost/Nordost
Temperatur 20°C
Luftfeuchtigkeit 53%
Luftdruck 1020 hPa
Sichtweite 10 km oder mehr
keine Wolken unter 1500 m und keine Kumulonimbus oder Gewitterwolken

METAR: LKPR 051900Z 07003KT CAVOK 20/10 Q1020 NOSIG

Zeit: 21:23 (19:23 UTC)

Prognose

Neuester Wetterbericht von vor 2 Stunden und 23 Minuten, um 17:00 UTC
Gültige Prognose vom 05 um 18 UTC bis 07 um 00 UTC
Wind 6 kt aus Nordost
Sichtweite 10 km oder mehr
keine Wolken unter 1500 m und keine Kumulonimbus oder Gewitterwolken
Zeitweise
vom 05 um 21 UTC bis 06 um 06 UTC
Wind 6 kt aus Südost

TAF: LKPR 051700Z 0518/0700 04006KT CAVOK TEMPO 0521/0606 13006KT

Wetterbeobachtungen und Prognosen von mehr als 4000 Flughäfen (METAR und TAF Bericht).

Die verfügbaren Stationen werden durch gelbe und rote Markierungen auf der Karte dargestellt.

Führen Sie die Maus auf sie, um den Namen der Station zu sehen.

Darauf klicken, um die Beobachtung von Wetterbeobachtungen und Prognosen zu sehen.

Um die Karte zu ändern : klicken Sie auf den grünen Tasten mit einem schwarzen Kreuz Zum Vergrößern, auf den grünen Button mit einem Gedankenstrich zu verkleinern, oder auf die grünen Pfeile für benachbarte Karten.


METAR-TAF: